createdAt,value
2019-02-27T00:03:56.115Z,97458.72
2019-02-27T00:09:32.661Z,97459.36
2019-02-27T00:12:21.851Z,97454.76
2019-02-27T00:15:13.083Z,97462.49
2019-02-27T00:17:44.683Z,97457.39
2019-02-27T00:20:37.738Z,97452.94
2019-02-27T00:23:15.192Z,97452.63
2019-02-27T00:25:45.767Z,97449.33
2019-02-27T00:28:28.210Z,97453.45
2019-02-27T00:31:11.550Z,97453.94
2019-02-27T00:33:43.177Z,97450.15
2019-02-27T00:36:13.969Z,97447.52
2019-02-27T00:39:04.721Z,97436.66
2019-02-27T00:41:36.924Z,97441.25
2019-02-27T00:44:07.517Z,97434.70
2019-02-27T00:49:34.392Z,97433.34
2019-02-27T00:52:21.811Z,97432.86
2019-02-27T00:55:04.660Z,97430.56
2019-02-27T00:57:55.554Z,97431.23
2019-02-27T01:01:04.317Z,97430.56
2019-02-27T01:03:34.924Z,97425.47
2019-02-27T01:06:24.835Z,97423.83
2019-02-27T01:08:59.026Z,97429.75
2019-02-27T01:11:43.520Z,97420.05
2019-02-27T01:14:36.933Z,97424.00
2019-02-27T01:19:56.509Z,97417.71
2019-02-27T01:22:38.668Z,97415.42
2019-02-27T01:25:23.144Z,97410.33
2019-02-27T01:27:54.359Z,97412.97
2019-02-27T01:30:44.052Z,97411.16
2019-02-27T01:33:37.786Z,97415.10
2019-02-27T01:36:11.285Z,97404.42
2019-02-27T01:38:53.168Z,97404.09
2019-02-27T01:41:24.564Z,97392.73
2019-02-27T01:44:01.481Z,97400.78
2019-02-27T01:46:44.047Z,97400.78
2019-02-27T01:49:16.131Z,97398.00
2019-02-27T01:51:59.142Z,97396.00
2019-02-27T01:54:34.823Z,97394.21
2019-02-27T01:57:08.517Z,97400.77
2019-02-27T02:05:50.432Z,97380.06
2019-02-27T02:08:32.165Z,97378.58
2019-02-27T02:11:03.776Z,97375.65
2019-02-27T02:14:14.255Z,97362.97
2019-02-27T02:17:22.888Z,97364.63
2019-02-27T02:20:31.842Z,97360.52
2019-02-27T02:26:49.107Z,97349.52
2019-02-27T02:29:47.590Z,97347.86
2019-02-27T02:32:41.885Z,97350.65
2019-02-27T02:35:55.947Z,97350.80
2019-02-27T02:39:05.931Z,97340.30
2019-02-27T02:42:24.522Z,97341.61
2019-02-27T02:45:37.571Z,97344.22
2019-02-27T02:48:46.199Z,97338.81
2019-02-27T02:51:50.005Z,97334.19
2019-02-27T02:55:12.728Z,97327.45
2019-02-27T02:58:12.427Z,97327.45
2019-02-27T03:01:15.268Z,97326.14
2019-02-27T03:04:15.093Z,97315.78
2019-02-27T03:07:23.793Z,97314.47
2019-02-27T03:10:33.982Z,97313.66
2019-02-27T03:13:43.818Z,97315.80
2019-02-27T03:16:27.338Z,97308.06
2019-02-27T03:19:41.265Z,97308.88
2019-02-27T03:22:51.762Z,97299.69
2019-02-27T03:25:44.768Z,97305.61
2019-02-27T03:28:53.712Z,97311.51
2019-02-27T03:31:57.874Z,97306.91
2019-02-27T03:35:03.643Z,97302.66
2019-02-27T03:38:12.340Z,97304.27
2019-02-27T03:41:22.837Z,97303.46
2019-02-27T03:44:40.700Z,97298.03
2019-02-27T03:47:52.162Z,97290.64
2019-02-27T03:54:09.106Z,97300.03
2019-02-27T03:57:02.113Z,97296.23
2019-02-27T04:00:11.365Z,97296.72
2019-02-27T04:03:07.351Z,97297.05
2019-02-27T04:06:20.117Z,97294.60
2019-02-27T04:09:18.613Z,97295.07
2019-02-27T04:11:53.693Z,97289.02
2019-02-27T04:14:43.735Z,97289.97
2019-02-27T04:17:14.314Z,97286.55
2019-02-27T04:19:46.559Z,97281.59
2019-02-27T04:25:13.653Z,97278.98
2019-02-27T04:30:35.415Z,97286.36
2019-02-27T04:33:06.036Z,97285.87
2019-02-27T04:35:47.936Z,97277.17
2019-02-27T04:38:43.317Z,97289.33
2019-02-27T04:41:17.858Z,97281.61
2019-02-27T04:43:51.733Z,97286.52
2019-02-27T04:46:41.406Z,97289.33
2019-02-27T04:49:12.023Z,97288.97
2019-02-27T04:51:42.649Z,97285.34
2019-02-27T04:54:25.297Z,97285.53
2019-02-27T04:57:08.158Z,97288.16
2019-02-27T04:59:39.104Z,97285.69
2019-02-27T05:02:29.021Z,97285.34
2019-02-27T05:05:06.148Z,97287.34
2019-02-27T05:07:42.955Z,97291.58
2019-02-27T05:10:24.735Z,97298.00
2019-02-27T05:12:55.349Z,97287.31
2019-02-27T05:15:26.020Z,97295.36
2019-02-27T05:18:08.000Z,97296.47
2019-02-27T05:20:50.171Z,97300.43
2019-02-27T05:23:33.434Z,97304.70
2019-02-27T05:26:03.882Z,97302.41
2019-02-27T05:28:46.583Z,97299.12
2019-02-27T05:31:19.018Z,97302.90
2019-02-27T05:34:28.784Z,97301.41
2019-02-27T05:43:33.778Z,97290.73
2019-02-27T05:48:47.079Z,97289.41
2019-02-27T05:54:50.030Z,97295.63
2019-02-27T05:57:25.332Z,97292.81
2019-02-27T06:06:28.259Z,97289.88
2019-02-27T06:08:52.093Z,97284.14
2019-02-27T06:11:33.101Z,97280.36
2019-02-27T06:14:54.786Z,97275.93
2019-02-27T06:23:49.032Z,97261.31
2019-02-27T06:26:32.195Z,97271.34
2019-02-27T06:29:37.831Z,97264.98
2019-02-27T06:32:22.182Z,97258.89
2019-02-27T06:35:13.755Z,97254.48
2019-02-27T06:40:35.709Z,97253.49
2019-02-27T06:43:18.770Z,97258.12
2019-02-27T06:46:00.920Z,97251.22
2019-02-27T06:48:31.521Z,97250.56
2019-02-27T06:51:36.663Z,97250.75
2019-02-27T06:54:02.050Z,97244.16
2019-02-27T06:57:12.095Z,97237.78
2019-02-27T07:05:48.247Z,97242.69
2019-02-27T07:14:39.081Z,97235.58
2019-02-27T07:17:15.737Z,97242.27
2019-02-27T07:20:05.724Z,97231.22
2019-02-27T07:22:50.942Z,97226.87
2019-02-27T07:25:36.345Z,97230.61
2019-02-27T07:28:25.828Z,97234.35
2019-02-27T07:31:07.407Z,97231.50
2019-02-27T07:33:40.576Z,97226.72
2019-02-27T07:36:36.022Z,97224.80
2019-02-27T07:39:15.207Z,97218.61
2019-02-27T07:42:04.872Z,97215.41
2019-02-27T07:44:35.894Z,97214.15
2019-02-27T07:50:54.701Z,97206.52
2019-02-27T07:53:44.448Z,97209.02
2019-02-27T07:56:15.276Z,97207.45
2019-02-27T08:01:27.558Z,97219.37
2019-02-27T08:04:19.070Z,97219.94
2019-02-27T08:06:42.969Z,97221.08
2019-02-27T08:09:45.925Z,97231.34
2019-02-27T08:12:17.525Z,97228.41
2019-02-27T08:15:14.326Z,97225.70
2019-02-27T08:17:50.854Z,97226.91
2019-02-27T08:20:32.375Z,97222.08
2019-02-27T08:23:15.515Z,97217.95
2019-02-27T08:25:46.332Z,97216.84
2019-02-27T08:28:17.128Z,97209.85
2019-02-27T08:34:01.054Z,97203.84
2019-02-27T08:36:32.124Z,97200.12
2019-02-27T08:39:24.429Z,97196.58
2019-02-27T08:41:55.120Z,97191.31
2019-02-27T08:44:38.270Z,97186.23
2019-02-27T08:47:10.860Z,97190.82
2019-02-27T08:50:34.904Z,97189.00
2019-02-27T08:52:58.881Z,97181.33
2019-02-27T08:55:29.447Z,97183.23
2019-02-27T08:58:19.210Z,97180.00
2019-02-27T09:00:51.804Z,97180.34
2019-02-27T09:03:30.408Z,97180.52
2019-02-27T09:06:01.081Z,97172.44
2019-02-27T09:08:44.326Z,97166.78
2019-02-27T09:11:26.684Z,97170.60
2019-02-27T09:16:53.765Z,97164.14
2019-02-27T09:19:35.981Z,97147.20
2019-02-27T09:22:08.515Z,97145.05
2019-02-27T09:24:58.268Z,97138.36
2019-02-27T09:27:41.128Z,97131.06
2019-02-27T09:36:35.725Z,97134.63
2019-02-27T09:42:13.282Z,97136.80
2019-02-27T09:44:45.080Z,97131.23
2019-02-27T09:47:23.143Z,97133.03
2019-02-27T09:50:19.264Z,97122.44
2019-02-27T09:52:51.927Z,97121.44
2019-02-27T09:56:01.083Z,97125.83
2019-02-27T09:58:33.265Z,97117.79
2019-02-27T10:04:36.537Z,97115.94
2019-02-27T10:07:07.262Z,97114.60
2019-02-27T10:09:48.996Z,97108.87
2019-02-27T10:12:19.646Z,97105.37
2019-02-27T10:14:50.913Z,97100.98
2019-02-27T10:17:28.650Z,97095.75
2019-02-27T10:23:09.306Z,97092.98
2019-02-27T10:25:43.466Z,97089.25
2019-02-27T10:28:27.085Z,97080.30
2019-02-27T10:30:57.717Z,97078.03
2019-02-27T10:37:18.241Z,97080.20
2019-02-27T10:39:52.921Z,97074.09
2019-02-27T10:42:42.778Z,97076.06
2019-02-27T10:45:51.233Z,97068.78
2019-02-27T10:51:24.638Z,97067.16
2019-02-27T10:54:17.184Z,97059.33
2019-02-27T10:57:31.474Z,97059.36
2019-02-27T11:02:53.594Z,97053.89
2019-02-27T11:06:06.048Z,97044.86
2019-02-27T11:08:58.840Z,97044.66
2019-02-27T11:11:32.177Z,97045.80
2019-02-27T11:14:23.757Z,97031.18
2019-02-27T11:16:55.409Z,97032.69
2019-02-27T11:25:42.115Z,97020.71
2019-02-27T11:31:35.119Z,97007.38
2019-02-27T11:34:26.689Z,97011.65
2019-02-27T11:39:39.100Z,96997.00
2019-02-27T11:42:23.592Z,96996.72
2019-02-27T11:44:54.554Z,96992.93
2019-02-27T11:47:25.305Z,96986.01
2019-02-27T11:50:10.483Z,96980.84
2019-02-27T11:52:56.089Z,96976.64
2019-02-27T11:58:22.261Z,96971.25
2019-02-27T12:04:07.385Z,96964.12
2019-02-27T12:06:57.390Z,96960.43
2019-02-27T12:09:47.652Z,96954.05
2019-02-27T12:12:41.060Z,96945.53
2019-02-27T12:15:12.849Z,96948.22
2019-02-27T12:21:16.170Z,96937.59
2019-02-27T12:32:16.671Z,96916.48
2019-02-27T12:34:59.099Z,96913.32
2019-02-27T12:37:34.087Z,96907.05
2019-02-27T12:40:27.929Z,96901.91
2019-02-27T12:45:57.674Z,96903.91
2019-02-27T12:49:13.953Z,96904.28
2019-02-27T12:54:49.482Z,96887.62
2019-02-27T12:57:21.959Z,96889.42
2019-02-27T13:00:31.891Z,96887.75
2019-02-27T13:03:02.600Z,96884.08
2019-02-27T13:08:46.735Z,96885.46
2019-02-27T13:11:19.045Z,96883.27
2019-02-27T13:14:08.757Z,96874.67
2019-02-27T13:16:43.478Z,96880.92
2019-02-27T13:19:17.312Z,96869.86
2019-02-27T13:24:50.946Z,96862.10
2019-02-27T13:27:33.592Z,96847.80
2019-02-27T13:30:23.527Z,96846.45
2019-02-27T13:33:13.281Z,96838.94
2019-02-27T13:35:46.800Z,96835.73
2019-02-27T13:48:41.973Z,96825.53
2019-02-27T13:51:15.157Z,96818.79
2019-02-27T13:54:00.549Z,96815.52
2019-02-27T13:56:53.905Z,96811.23
2019-02-27T14:02:46.273Z,96805.60
2019-02-27T14:05:17.665Z,96795.33
2019-02-27T14:08:01.451Z,96791.85
2019-02-27T14:10:32.365Z,96785.92
2019-02-27T14:13:08.781Z,96778.37
2019-02-27T14:15:45.284Z,96774.89
2019-02-27T14:18:17.490Z,96761.41
2019-02-27T14:24:48.093Z,96764.40
2019-02-27T14:27:14.580Z,96759.01
2019-02-27T14:33:14.488Z,96757.41
2019-02-27T14:35:56.916Z,96757.14
2019-02-27T14:41:51.390Z,96749.33
2019-02-27T14:50:24.340Z,96738.81
2019-02-27T14:59:21.750Z,96733.73
2019-02-27T15:02:05.397Z,96727.03
2019-02-27T15:11:27.097Z,96727.02
2019-02-27T15:14:04.930Z,96724.00
2019-02-27T15:19:48.941Z,96722.87
2019-02-27T15:22:20.528Z,96713.86
2019-02-27T15:25:30.659Z,96709.22
2019-02-27T15:28:05.602Z,96700.47
2019-02-27T15:30:55.333Z,96700.34
2019-02-27T15:33:56.473Z,96695.36
2019-02-27T15:39:42.116Z,96694.44
2019-02-27T15:42:12.973Z,96690.79
2019-02-27T15:44:45.362Z,96690.86
2019-02-27T15:47:32.708Z,96686.66
2019-02-27T15:56:05.421Z,96677.50
2019-02-27T16:01:43.924Z,96665.85
2019-02-27T16:07:29.892Z,96656.27
2019-02-27T16:10:23.098Z,96654.22
2019-02-27T16:22:54.602Z,96632.57
2019-02-27T16:25:25.436Z,96631.78
2019-02-27T16:31:13.477Z,96622.88
2019-02-27T16:33:48.263Z,96623.20
2019-02-27T16:36:36.751Z,96619.60
2019-02-27T16:39:27.391Z,96627.23
2019-02-27T16:42:07.410Z,96625.40
2019-02-27T16:45:16.092Z,96628.70
2019-02-27T16:51:00.769Z,96621.62
2019-02-27T17:02:35.500Z,96616.17
2019-02-27T17:05:14.227Z,96613.30
2019-02-27T17:10:51.763Z,96616.12
2019-02-27T17:13:39.378Z,96612.03
2019-02-27T17:16:11.914Z,96607.15
2019-02-27T17:22:25.985Z,96615.48
2019-02-27T17:25:11.434Z,96615.31
2019-02-27T17:27:37.086Z,96612.77
2019-02-27T17:30:28.878Z,96615.27
2019-02-27T17:33:12.833Z,96616.91
2019-02-27T17:36:00.527Z,96617.00
2019-02-27T17:47:47.774Z,96604.08
2019-02-27T17:50:56.696Z,96608.14
2019-02-27T17:53:37.752Z,96606.30
2019-02-27T17:59:50.352Z,96608.05
2019-02-27T18:03:05.098Z,96603.91
2019-02-27T18:05:39.716Z,96600.65
2019-02-27T18:08:15.962Z,96591.44
2019-02-27T18:11:06.045Z,96590.24
2019-02-27T18:26:04.948Z,96582.32
2019-02-27T18:31:46.131Z,96581.40
2019-02-27T18:34:30.613Z,96577.24
2019-02-27T18:37:08.568Z,96571.94
2019-02-27T18:39:41.057Z,96569.80
2019-02-27T18:42:17.240Z,96567.51
2019-02-27T18:54:03.152Z,96562.52
2019-02-27T18:59:57.582Z,96559.80
2019-02-27T19:03:25.912Z,96558.63
2019-02-27T19:09:20.286Z,96550.55
2019-02-27T19:12:06.979Z,96543.88
2019-02-27T19:26:59.176Z,96519.25
2019-02-27T19:29:31.872Z,96514.52
2019-02-27T19:32:50.139Z,96512.52
2019-02-27T19:35:34.487Z,96503.16
2019-02-27T19:44:03.105Z,96489.44
2019-02-27T19:49:43.896Z,96486.45
2019-02-27T19:52:55.208Z,96489.51
2019-02-27T20:01:12.435Z,96479.52
2019-02-27T20:06:58.335Z,96470.63
2019-02-27T20:10:15.103Z,96456.47
2019-02-27T20:19:42.608Z,96440.23
2019-02-27T20:25:35.692Z,96420.56
2019-02-27T20:28:08.894Z,96424.23
2019-02-27T20:30:51.684Z,96411.27
2019-02-27T20:45:05.476Z,96400.08
2019-02-27T20:47:59.990Z,96394.98
2019-02-27T20:56:45.092Z,96368.96
2019-02-27T20:59:26.081Z,96367.92
2019-02-27T21:11:38.683Z,96346.37
2019-02-27T21:20:25.323Z,96328.17
2019-02-27T21:23:52.081Z,96323.95
2019-02-27T21:29:18.056Z,96322.51
2019-02-27T21:31:53.268Z,96321.45
2019-02-27T21:37:45.587Z,96317.47
2019-02-27T21:40:22.150Z,96316.59
2019-02-27T21:46:08.314Z,96310.56
2019-02-27T21:48:41.082Z,96304.13
2019-02-27T21:51:23.251Z,96301.48
2019-02-27T21:54:08.150Z,96287.97
2019-02-27T21:56:59.566Z,96285.16
2019-02-27T21:59:30.391Z,96283.25
2019-02-27T22:02:02.495Z,96287.08
2019-02-27T22:04:52.436Z,96279.31
2019-02-27T22:10:23.317Z,96272.88
2019-02-27T22:13:12.931Z,96278.13
2019-02-27T22:15:43.590Z,96268.22
2019-02-27T22:18:33.582Z,96268.13
2019-02-27T22:21:04.638Z,96270.03
2019-02-27T22:23:44.870Z,96266.02
2019-02-27T22:27:02.707Z,96268.83
2019-02-27T22:29:55.844Z,96264.08
2019-02-27T22:33:15.837Z,96257.31
2019-02-27T22:35:57.884Z,96255.70
2019-02-27T22:42:14.437Z,96254.58
2019-02-27T22:44:44.686Z,96247.97
2019-02-27T22:50:13.558Z,96241.37
2019-02-27T22:53:03.528Z,96246.15
2019-02-27T22:55:36.216Z,96244.81
2019-02-27T23:04:53.021Z,96236.83
2019-02-27T23:07:22.310Z,96230.59
2019-02-27T23:13:47.439Z,96219.74
2019-02-27T23:16:22.737Z,96218.98
2019-02-27T23:19:13.135Z,96217.50
2019-02-27T23:24:38.363Z,96217.69
2019-02-27T23:29:58.497Z,96206.11
2019-02-27T23:32:41.051Z,96200.15
2019-02-27T23:38:13.239Z,96196.88
2019-02-27T23:43:27.606Z,96190.73
2019-02-27T23:46:10.280Z,96183.37
2019-02-27T23:48:59.909Z,96181.84
2019-02-27T23:51:30.566Z,96174.74
2019-02-27T23:54:20.468Z,96174.13
2019-02-27T23:56:52.232Z,96172.23
2019-02-27T23:59:29.080Z,96157.66
